Airfield :
LOGIN :

Register | Disclaimer

   EN    FR    IT 

 










Legend :    VFR   Marginal VFR   IFR   Intensive IFR   Very Intensive IFR
Visi :
Ceiling :
>= 8 km
>= 3000ft
5 to 8 km
1000 to 3000 ft
1500m to 5 km
500 to 1000 ft
800 to 1500m
200 to 500 ft
< 800m
< 200 ft
Symbols :   Thunderstorms  Fog  Heavy snow  Heavy precipitations  Wind > 20 kt
SIGMETs :     Misc.  Thunderstorms  Icing  Turbulence  Mountain Waves  Volcanic Ashes







- Airport Elevation : 171 ft
- IATA code : EGC
- Download approach charts


LFBE - Bergerac

CURRENT METAR :
  • 181600Z AUTO 14004KT 060V180 CAVOK 32/15 Q1009 NOSIG

EXPIRED METARs :
  • 181530Z AUTO 14005KT 090V180 CAVOK 32/15 Q1009 NOSIG
  • 181500Z AUTO 13006KT 050V160 9999 FEW003 31/15 Q1009 NOSIG
  • 181430Z AUTO 16005KT 120V210 CAVOK 30/14 Q1009 NOSIG
  • 181400Z AUTO 14005KT 090V190 CAVOK 31/15 Q1009 NOSIG
  • 181330Z AUTO 16005KT 120V190 CAVOK 30/15 Q1010 NOSIG

TAF AMD TAF LFBE
Valid from the 18 at 15:00 until the 19 at 12:00 UTC


181512Z 1815/1912 15010KT CAVOK
TEMPO 1820/1824 VRB15G25KT SHRA BKN080TCU
PROB40
TEMPO 1820/1824 VRB25G40KT 4000 TSRAGR SCT015 BKN050CB
BECMG 1903/1905 30008KT
BECMG 1908/1910 BKN020
No reported NOTAMs for that airfield.



MET'MAP, your aeronautical weather chart ! - Copyright ORBIFLY December 2007 - Disclaimer

ORBIFLY MET'MAP TEAM :

Programming & Development : Alexandra Zaïnal
Concept & Development : Baudouin d'Aumeries
Co-Development & Prog : Marc-Olivier Méhu
Technical & hardware support : Manuel Goepfert

Contact : metmap@orbifly.com




SOURCES & CREDITS :

   NOAA